sensor_id;sensor_type;location;lat;lon;timestamp;P1;durP1;ratioP1;P2;durP2;ratioP2
18711;SDS011;9485;49.386;8.674;2023-05-10T00:03:24;1.37;;;0.90;;
18711;SDS011;9485;49.386;8.674;2023-05-10T00:08:45;3.33;;;0.80;;
18711;SDS011;9485;49.386;8.674;2023-05-10T00:14:07;0.77;;;0.77;;
18711;SDS011;9485;49.386;8.674;2023-05-10T00:19:28;0.67;;;0.60;;
18711;SDS011;9485;49.386;8.674;2023-05-10T00:24:48;0.87;;;0.63;;
18711;SDS011;9485;49.386;8.674;2023-05-10T00:30:10;0.73;;;0.73;;
18711;SDS011;9485;49.386;8.674;2023-05-10T00:35:31;0.70;;;0.70;;
18711;SDS011;9485;49.386;8.674;2023-05-10T00:40:51;0.80;;;0.80;;
18711;SDS011;9485;49.386;8.674;2023-05-10T00:46:20;1.00;;;0.60;;
18711;SDS011;9485;49.386;8.674;2023-05-10T00:51:41;0.70;;;0.60;;
18711;SDS011;9485;49.386;8.674;2023-05-10T00:57:03;0.90;;;0.60;;
18711;SDS011;9485;49.386;8.674;2023-05-10T01:02:25;0.80;;;0.80;;
18711;SDS011;9485;49.386;8.674;2023-05-10T01:07:46;0.60;;;0.60;;
18711;SDS011;9485;49.386;8.674;2023-05-10T01:13:07;0.70;;;0.70;;
18711;SDS011;9485;49.386;8.674;2023-05-10T01:18:30;0.80;;;0.80;;
18711;SDS011;9485;49.386;8.674;2023-05-10T01:36:26;0.63;;;0.63;;
18711;SDS011;9485;49.386;8.674;2023-05-10T01:42:03;0.70;;;0.70;;
18711;SDS011;9485;49.386;8.674;2023-05-10T01:47:30;0.60;;;0.60;;
18711;SDS011;9485;49.386;8.674;2023-05-10T01:53:03;1.57;;;0.87;;
18711;SDS011;9485;49.386;8.674;2023-05-10T01:58:29;1.70;;;0.80;;
18711;SDS011;9485;49.386;8.674;2023-05-10T02:03:54;0.77;;;0.77;;
18711;SDS011;9485;49.386;8.674;2023-05-10T02:09:18;1.00;;;0.90;;
18711;SDS011;9485;49.386;8.674;2023-05-10T02:14:43;1.07;;;0.70;;
18711;SDS011;9485;49.386;8.674;2023-05-10T02:20:05;1.13;;;0.90;;
18711;SDS011;9485;49.386;8.674;2023-05-10T02:25:30;0.60;;;0.60;;
18711;SDS011;9485;49.386;8.674;2023-05-10T02:30:53;1.23;;;0.80;;
18711;SDS011;9485;49.386;8.674;2023-05-10T02:36:14;1.20;;;1.10;;
18711;SDS011;9485;49.386;8.674;2023-05-10T02:41:38;1.10;;;1.00;;
18711;SDS011;9485;49.386;8.674;2023-05-10T02:47:00;0.90;;;0.90;;
18711;SDS011;9485;49.386;8.674;2023-05-10T02:52:23;1.17;;;1.10;;
18711;SDS011;9485;49.386;8.674;2023-05-10T02:57:52;1.03;;;1.00;;
18711;SDS011;9485;49.386;8.674;2023-05-10T03:03:19;1.10;;;0.93;;
18711;SDS011;9485;49.386;8.674;2023-05-10T03:08:42;1.10;;;1.00;;
18711;SDS011;9485;49.386;8.674;2023-05-10T03:14:13;1.37;;;0.93;;
18711;SDS011;9485;49.386;8.674;2023-05-10T03:19:52;2.23;;;1.23;;
18711;SDS011;9485;49.386;8.674;2023-05-10T03:25:17;1.40;;;1.30;;
18711;SDS011;9485;49.386;8.674;2023-05-10T03:30:43;1.40;;;1.30;;
18711;SDS011;9485;49.386;8.674;2023-05-10T03:36:06;2.00;;;1.53;;
18711;SDS011;9485;49.386;8.674;2023-05-10T03:41:27;1.70;;;1.60;;
18711;SDS011;9485;49.386;8.674;2023-05-10T03:46:49;1.73;;;1.63;;
18711;SDS011;9485;49.386;8.674;2023-05-10T03:52:10;2.47;;;1.67;;
18711;SDS011;9485;49.386;8.674;2023-05-10T03:57:31;2.13;;;1.93;;
18711;SDS011;9485;49.386;8.674;2023-05-10T04:02:53;2.10;;;1.90;;
18711;SDS011;9485;49.386;8.674;2023-05-10T04:08:15;1.70;;;1.60;;
18711;SDS011;9485;49.386;8.674;2023-05-10T04:13:36;1.93;;;1.83;;
18711;SDS011;9485;49.386;8.674;2023-05-10T04:18:58;3.33;;;2.10;;
18711;SDS011;9485;49.386;8.674;2023-05-10T04:24:19;4.33;;;2.10;;
18711;SDS011;9485;49.386;8.674;2023-05-10T04:29:40;2.63;;;2.40;;
18711;SDS011;9485;49.386;8.674;2023-05-10T04:35:01;2.40;;;2.20;;
18711;SDS011;9485;49.386;8.674;2023-05-10T04:40:23;2.80;;;2.60;;
18711;SDS011;9485;49.386;8.674;2023-05-10T04:45:44;2.70;;;2.30;;
18711;SDS011;9485;49.386;8.674;2023-05-10T04:51:06;3.03;;;2.60;;
18711;SDS011;9485;49.386;8.674;2023-05-10T04:56:26;3.57;;;2.30;;
18711;SDS011;9485;49.386;8.674;2023-05-10T05:01:47;2.47;;;2.27;;
18711;SDS011;9485;49.386;8.674;2023-05-10T05:07:09;3.07;;;2.77;;
18711;SDS011;9485;49.386;8.674;2023-05-10T05:12:29;4.07;;;3.00;;
18711;SDS011;9485;49.386;8.674;2023-05-10T05:17:50;3.43;;;2.70;;
18711;SDS011;9485;49.386;8.674;2023-05-10T05:23:13;3.20;;;2.87;;
18711;SDS011;9485;49.386;8.674;2023-05-10T05:28:33;2.63;;;2.43;;
18711;SDS011;9485;49.386;8.674;2023-05-10T05:33:56;4.97;;;3.27;;
18711;SDS011;9485;49.386;8.674;2023-05-10T05:39:18;3.43;;;3.13;;
18711;SDS011;9485;49.386;8.674;2023-05-10T05:44:39;5.80;;;3.50;;
18711;SDS011;9485;49.386;8.674;2023-05-10T05:50:00;3.53;;;3.20;;
18711;SDS011;9485;49.386;8.674;2023-05-10T05:55:23;4.33;;;2.83;;
18711;SDS011;9485;49.386;8.674;2023-05-10T06:00:44;3.63;;;3.20;;
18711;SDS011;9485;49.386;8.674;2023-05-10T06:06:09;3.63;;;3.30;;
18711;SDS011;9485;49.386;8.674;2023-05-10T06:11:32;5.93;;;3.27;;
18711;SDS011;9485;49.386;8.674;2023-05-10T06:16:53;4.37;;;3.13;;
18711;SDS011;9485;49.386;8.674;2023-05-10T06:22:14;4.07;;;3.67;;
18711;SDS011;9485;49.386;8.674;2023-05-10T06:27:37;4.97;;;3.77;;
18711;SDS011;9485;49.386;8.674;2023-05-10T06:32:58;4.30;;;3.90;;
18711;SDS011;9485;49.386;8.674;2023-05-10T06:38:19;3.83;;;3.53;;
18711;SDS011;9485;49.386;8.674;2023-05-10T06:43:41;5.40;;;3.90;;
18711;SDS011;9485;49.386;8.674;2023-05-10T06:49:02;3.83;;;3.53;;
18711;SDS011;9485;49.386;8.674;2023-05-10T06:54:23;4.57;;;4.10;;
18711;SDS011;9485;49.386;8.674;2023-05-10T06:59:45;4.43;;;3.93;;
18711;SDS011;9485;49.386;8.674;2023-05-10T07:05:06;4.63;;;3.87;;
18711;SDS011;9485;49.386;8.674;2023-05-10T07:10:29;4.73;;;3.43;;
18711;SDS011;9485;49.386;8.674;2023-05-10T07:15:50;4.13;;;3.73;;
18711;SDS011;9485;49.386;8.674;2023-05-10T07:21:11;5.20;;;4.10;;
18711;SDS011;9485;49.386;8.674;2023-05-10T07:26:32;4.67;;;3.40;;
18711;SDS011;9485;49.386;8.674;2023-05-10T07:31:55;3.70;;;3.20;;
18711;SDS011;9485;49.386;8.674;2023-05-10T07:37:15;3.40;;;3.00;;
18711;SDS011;9485;49.386;8.674;2023-05-10T07:42:36;4.97;;;3.30;;
18711;SDS011;9485;49.386;8.674;2023-05-10T07:47:58;5.20;;;2.97;;
18711;SDS011;9485;49.386;8.674;2023-05-10T07:53:18;3.60;;;3.20;;
18711;SDS011;9485;49.386;8.674;2023-05-10T07:58:39;3.17;;;2.87;;
18711;SDS011;9485;49.386;8.674;2023-05-10T08:04:01;2.57;;;2.37;;
18711;SDS011;9485;49.386;8.674;2023-05-10T08:09:22;2.40;;;2.30;;
18711;SDS011;9485;49.386;8.674;2023-05-10T08:14:43;2.40;;;2.17;;
18711;SDS011;9485;49.386;8.674;2023-05-10T08:20:05;2.43;;;2.00;;
18711;SDS011;9485;49.386;8.674;2023-05-10T08:25:27;2.33;;;1.63;;
18711;SDS011;9485;49.386;8.674;2023-05-10T08:30:49;2.45;;;1.70;;
18711;SDS011;9485;49.386;8.674;2023-05-10T08:36:12;1.55;;;1.45;;
18711;SDS011;9485;49.386;8.674;2023-05-10T08:41:38;1.63;;;1.52;;
18711;SDS011;9485;49.386;8.674;2023-05-10T08:47:01;1.50;;;1.40;;
18711;SDS011;9485;49.386;8.674;2023-05-10T08:52:27;5.28;;;1.73;;
18711;SDS011;9485;49.386;8.674;2023-05-10T08:57:50;1.50;;;1.40;;
18711;SDS011;9485;49.386;8.674;2023-05-10T09:03:10;1.67;;;1.38;;
18711;SDS011;9485;49.386;8.674;2023-05-10T09:08:34;1.65;;;1.35;;
18711;SDS011;9485;49.386;8.674;2023-05-10T09:13:57;1.08;;;1.00;;
18711;SDS011;9485;49.386;8.674;2023-05-10T09:19:18;1.00;;;1.00;;
18711;SDS011;9485;49.386;8.674;2023-05-10T09:24:40;1.30;;;1.20;;
18711;SDS011;9485;49.386;8.674;2023-05-10T09:30:04;1.45;;;1.05;;
18711;SDS011;9485;49.386;8.674;2023-05-10T09:35:27;1.00;;;1.00;;
18711;SDS011;9485;49.386;8.674;2023-05-10T09:40:52;1.45;;;1.35;;
18711;SDS011;9485;49.386;8.674;2023-05-10T09:46:14;1.42;;;1.25;;
18711;SDS011;9485;49.386;8.674;2023-05-10T09:51:36;1.80;;;1.00;;
18711;SDS011;9485;49.386;8.674;2023-05-10T09:56:58;1.08;;;1.00;;
18711;SDS011;9485;49.386;8.674;2023-05-10T10:02:19;2.97;;;1.08;;
18711;SDS011;9485;49.386;8.674;2023-05-10T10:07:40;0.88;;;0.88;;
18711;SDS011;9485;49.386;8.674;2023-05-10T10:13:03;1.77;;;0.80;;
18711;SDS011;9485;49.386;8.674;2023-05-10T10:18:24;1.13;;;1.02;;
18711;SDS011;9485;49.386;8.674;2023-05-10T10:23:47;1.25;;;1.15;;
18711;SDS011;9485;49.386;8.674;2023-05-10T10:29:12;0.90;;;0.90;;
18711;SDS011;9485;49.386;8.674;2023-05-10T10:34:43;1.77;;;0.90;;
18711;SDS011;9485;49.386;8.674;2023-05-10T10:40:13;0.77;;;0.70;;
18711;SDS011;9485;49.386;8.674;2023-05-10T10:45:48;1.10;;;0.85;;
18711;SDS011;9485;49.386;8.674;2023-05-10T10:51:32;0.85;;;0.82;;
18711;SDS011;9485;49.386;8.674;2023-05-10T11:02:34;0.60;;;0.60;;
18711;SDS011;9485;49.386;8.674;2023-05-10T11:08:18;1.00;;;0.80;;
18711;SDS011;9485;49.386;8.674;2023-05-10T11:13:47;1.45;;;1.08;;
18711;SDS011;9485;49.386;8.674;2023-05-10T11:19:10;3.85;;;0.90;;
18711;SDS011;9485;49.386;8.674;2023-05-10T11:24:33;1.92;;;0.80;;
18711;SDS011;9485;49.386;8.674;2023-05-10T11:29:54;1.70;;;0.77;;
18711;SDS011;9485;49.386;8.674;2023-05-10T11:35:17;0.68;;;0.68;;
18711;SDS011;9485;49.386;8.674;2023-05-10T11:40:38;1.70;;;1.00;;
18711;SDS011;9485;49.386;8.674;2023-05-10T11:46:00;2.35;;;0.68;;
18711;SDS011;9485;49.386;8.674;2023-05-10T11:51:23;0.70;;;0.70;;
18711;SDS011;9485;49.386;8.674;2023-05-10T11:56:45;1.25;;;0.63;;
18711;SDS011;9485;49.386;8.674;2023-05-10T12:02:06;0.60;;;0.60;;
18711;SDS011;9485;49.386;8.674;2023-05-10T12:07:28;1.63;;;0.80;;
18711;SDS011;9485;49.386;8.674;2023-05-10T12:12:52;0.63;;;0.63;;
18711;SDS011;9485;49.386;8.674;2023-05-10T12:18:14;0.95;;;0.80;;
18711;SDS011;9485;49.386;8.674;2023-05-10T12:23:48;1.38;;;0.80;;
18711;SDS011;9485;49.386;8.674;2023-05-10T12:29:14;1.88;;;1.25;;
18711;SDS011;9485;49.386;8.674;2023-05-10T12:34:37;1.27;;;0.90;;
18711;SDS011;9485;49.386;8.674;2023-05-10T12:39:59;1.08;;;0.90;;
18711;SDS011;9485;49.386;8.674;2023-05-10T12:45:25;4.63;;;1.10;;
18711;SDS011;9485;49.386;8.674;2023-05-10T12:50:45;1.67;;;1.00;;
18711;SDS011;9485;49.386;8.674;2023-05-10T12:56:08;2.28;;;0.82;;
18711;SDS011;9485;49.386;8.674;2023-05-10T13:01:29;0.77;;;0.75;;
18711;SDS011;9485;49.386;8.674;2023-05-10T13:06:50;0.80;;;0.80;;
18711;SDS011;9485;49.386;8.674;2023-05-10T13:12:13;1.55;;;0.90;;
18711;SDS011;9485;49.386;8.674;2023-05-10T13:17:33;1.40;;;0.70;;
18711;SDS011;9485;49.386;8.674;2023-05-10T13:22:54;1.45;;;0.90;;
18711;SDS011;9485;49.386;8.674;2023-05-10T13:28:17;3.25;;;0.85;;
18711;SDS011;9485;49.386;8.674;2023-05-10T13:33:37;1.00;;;0.80;;
18711;SDS011;9485;49.386;8.674;2023-05-10T13:38:58;1.63;;;0.73;;
18711;SDS011;9485;49.386;8.674;2023-05-10T13:44:22;1.88;;;0.85;;
18711;SDS011;9485;49.386;8.674;2023-05-10T13:49:43;1.33;;;0.93;;
18711;SDS011;9485;49.386;8.674;2023-05-10T13:55:03;1.70;;;0.80;;
18711;SDS011;9485;49.386;8.674;2023-05-10T14:00:26;1.20;;;0.63;;
18711;SDS011;9485;49.386;8.674;2023-05-10T14:05:49;2.63;;;0.80;;
18711;SDS011;9485;49.386;8.674;2023-05-10T14:11:10;0.60;;;0.60;;
18711;SDS011;9485;49.386;8.674;2023-05-10T14:16:33;0.50;;;0.50;;
18711;SDS011;9485;49.386;8.674;2023-05-10T14:21:54;1.92;;;0.60;;
18711;SDS011;9485;49.386;8.674;2023-05-10T14:27:15;1.75;;;0.60;;
18711;SDS011;9485;49.386;8.674;2023-05-10T14:32:36;0.70;;;0.70;;
18711;SDS011;9485;49.386;8.674;2023-05-10T14:37:57;1.77;;;0.60;;
18711;SDS011;9485;49.386;8.674;2023-05-10T14:43:18;0.93;;;0.50;;
18711;SDS011;9485;49.386;8.674;2023-05-10T14:48:40;1.20;;;0.60;;
18711;SDS011;9485;49.386;8.674;2023-05-10T14:54:01;1.05;;;0.65;;
18711;SDS011;9485;49.386;8.674;2023-05-10T14:59:22;0.60;;;0.60;;
18711;SDS011;9485;49.386;8.674;2023-05-10T15:04:44;0.80;;;0.57;;
18711;SDS011;9485;49.386;8.674;2023-05-10T15:10:05;1.20;;;0.60;;
18711;SDS011;9485;49.386;8.674;2023-05-10T15:15:27;1.40;;;0.60;;
18711;SDS011;9485;49.386;8.674;2023-05-10T15:20:50;0.50;;;0.50;;
18711;SDS011;9485;49.386;8.674;2023-05-10T15:26:11;0.50;;;0.50;;
18711;SDS011;9485;49.386;8.674;2023-05-10T15:31:31;0.70;;;0.60;;
18711;SDS011;9485;49.386;8.674;2023-05-10T15:36:55;0.50;;;0.50;;
18711;SDS011;9485;49.386;8.674;2023-05-10T15:42:16;0.75;;;0.75;;
18711;SDS011;9485;49.386;8.674;2023-05-10T15:47:37;0.50;;;0.50;;
18711;SDS011;9485;49.386;8.674;2023-05-10T15:53:01;1.00;;;0.90;;
18711;SDS011;9485;49.386;8.674;2023-05-10T15:58:21;0.50;;;0.50;;
18711;SDS011;9485;49.386;8.674;2023-05-10T16:03:43;1.30;;;0.70;;
18711;SDS011;9485;49.386;8.674;2023-05-10T16:09:05;0.68;;;0.50;;
18711;SDS011;9485;49.386;8.674;2023-05-10T16:14:25;1.17;;;0.43;;
18711;SDS011;9485;49.386;8.674;2023-05-10T16:19:46;0.50;;;0.50;;
18711;SDS011;9485;49.386;8.674;2023-05-10T16:25:09;0.82;;;0.60;;
18711;SDS011;9485;49.386;8.674;2023-05-10T16:30:30;0.60;;;0.60;;
18711;SDS011;9485;49.386;8.674;2023-05-10T16:35:50;1.00;;;0.60;;
18711;SDS011;9485;49.386;8.674;2023-05-10T16:41:12;0.40;;;0.40;;
18711;SDS011;9485;49.386;8.674;2023-05-10T16:46:33;0.70;;;0.70;;
18711;SDS011;9485;49.386;8.674;2023-05-10T16:51:54;0.55;;;0.55;;
18711;SDS011;9485;49.386;8.674;2023-05-10T16:57:16;1.65;;;0.70;;
18711;SDS011;9485;49.386;8.674;2023-05-10T17:02:37;0.43;;;0.43;;
18711;SDS011;9485;49.386;8.674;2023-05-10T17:07:57;0.60;;;0.60;;
18711;SDS011;9485;49.386;8.674;2023-05-10T17:13:20;0.60;;;0.50;;
18711;SDS011;9485;49.386;8.674;2023-05-10T17:18:41;0.70;;;0.70;;
18711;SDS011;9485;49.386;8.674;2023-05-10T17:24:03;2.30;;;0.70;;
18711;SDS011;9485;49.386;8.674;2023-05-10T17:29:26;0.80;;;0.80;;
18711;SDS011;9485;49.386;8.674;2023-05-10T17:34:46;1.02;;;0.88;;
18711;SDS011;9485;49.386;8.674;2023-05-10T17:40:07;1.75;;;0.70;;
18711;SDS011;9485;49.386;8.674;2023-05-10T17:45:31;2.30;;;0.73;;
18711;SDS011;9485;49.386;8.674;2023-05-10T17:50:51;2.15;;;0.80;;
18711;SDS011;9485;49.386;8.674;2023-05-10T17:56:13;2.40;;;1.00;;
18711;SDS011;9485;49.386;8.674;2023-05-10T18:01:35;0.65;;;0.65;;
18711;SDS011;9485;49.386;8.674;2023-05-10T18:06:56;1.52;;;0.95;;
18711;SDS011;9485;49.386;8.674;2023-05-10T18:12:19;0.90;;;0.80;;
18711;SDS011;9485;49.386;8.674;2023-05-10T18:17:41;1.15;;;0.90;;
18711;SDS011;9485;49.386;8.674;2023-05-10T18:23:02;0.60;;;0.60;;
18711;SDS011;9485;49.386;8.674;2023-05-10T18:28:24;0.88;;;0.60;;
18711;SDS011;9485;49.386;8.674;2023-05-10T18:33:46;0.70;;;0.70;;
18711;SDS011;9485;49.386;8.674;2023-05-10T18:39:07;1.67;;;0.90;;
18711;SDS011;9485;49.386;8.674;2023-05-10T18:44:28;1.67;;;0.88;;
18711;SDS011;9485;49.386;8.674;2023-05-10T18:49:50;0.70;;;0.70;;
18711;SDS011;9485;49.386;8.674;2023-05-10T18:55:11;0.70;;;0.60;;
18711;SDS011;9485;49.386;8.674;2023-05-10T19:00:32;0.88;;;0.88;;
18711;SDS011;9485;49.386;8.674;2023-05-10T19:05:54;2.05;;;0.70;;
18711;SDS011;9485;49.386;8.674;2023-05-10T19:11:15;0.95;;;0.70;;
18711;SDS011;9485;49.386;8.674;2023-05-10T19:16:35;0.50;;;0.50;;
18711;SDS011;9485;49.386;8.674;2023-05-10T19:21:57;2.27;;;1.37;;
18711;SDS011;9485;49.386;8.674;2023-05-10T19:27:18;1.75;;;1.30;;
18711;SDS011;9485;49.386;8.674;2023-05-10T19:32:39;0.88;;;0.80;;
18711;SDS011;9485;49.386;8.674;2023-05-10T19:38:02;0.77;;;0.67;;
18711;SDS011;9485;49.386;8.674;2023-05-10T19:43:23;0.73;;;0.60;;
18711;SDS011;9485;49.386;8.674;2023-05-10T19:48:43;0.80;;;0.80;;
18711;SDS011;9485;49.386;8.674;2023-05-10T19:54:05;0.50;;;0.50;;
18711;SDS011;9485;49.386;8.674;2023-05-10T19:59:26;0.90;;;0.53;;
18711;SDS011;9485;49.386;8.674;2023-05-10T20:04:47;2.00;;;0.70;;
18711;SDS011;9485;49.386;8.674;2023-05-10T20:10:09;1.13;;;0.70;;
18711;SDS011;9485;49.386;8.674;2023-05-10T20:15:30;1.03;;;0.67;;
18711;SDS011;9485;49.386;8.674;2023-05-10T20:20:54;0.87;;;0.60;;
18711;SDS011;9485;49.386;8.674;2023-05-10T20:26:19;0.73;;;0.50;;
18711;SDS011;9485;49.386;8.674;2023-05-10T20:31:40;1.03;;;0.70;;
18711;SDS011;9485;49.386;8.674;2023-05-10T20:37:00;0.70;;;0.70;;
18711;SDS011;9485;49.386;8.674;2023-05-10T20:42:22;1.57;;;0.80;;
18711;SDS011;9485;49.386;8.674;2023-05-10T20:47:43;0.60;;;0.60;;
18711;SDS011;9485;49.386;8.674;2023-05-10T20:53:04;1.03;;;0.70;;
18711;SDS011;9485;49.386;8.674;2023-05-10T20:58:26;0.80;;;0.80;;
18711;SDS011;9485;49.386;8.674;2023-05-10T21:03:47;1.77;;;0.63;;
18711;SDS011;9485;49.386;8.674;2023-05-10T21:09:07;1.17;;;0.80;;
18711;SDS011;9485;49.386;8.674;2023-05-10T21:14:29;0.83;;;0.70;;
18711;SDS011;9485;49.386;8.674;2023-05-10T21:19:50;1.03;;;0.70;;
18711;SDS011;9485;49.386;8.674;2023-05-10T21:25:10;0.80;;;0.73;;
18711;SDS011;9485;49.386;8.674;2023-05-10T21:30:33;0.87;;;0.60;;
18711;SDS011;9485;49.386;8.674;2023-05-10T21:35:53;1.03;;;0.93;;
18711;SDS011;9485;49.386;8.674;2023-05-10T21:41:14;1.47;;;0.87;;
18711;SDS011;9485;49.386;8.674;2023-05-10T21:46:36;1.00;;;0.90;;
18711;SDS011;9485;49.386;8.674;2023-05-10T21:51:56;1.00;;;0.80;;
18711;SDS011;9485;49.386;8.674;2023-05-10T21:57:17;0.60;;;0.60;;
18711;SDS011;9485;49.386;8.674;2023-05-10T22:02:40;0.70;;;0.70;;
18711;SDS011;9485;49.386;8.674;2023-05-10T22:08:00;1.57;;;0.80;;
18711;SDS011;9485;49.386;8.674;2023-05-10T22:13:21;0.90;;;0.80;;
18711;SDS011;9485;49.386;8.674;2023-05-10T22:18:45;0.70;;;0.70;;
18711;SDS011;9485;49.386;8.674;2023-05-10T22:24:06;0.70;;;0.70;;
18711;SDS011;9485;49.386;8.674;2023-05-10T22:29:27;1.17;;;0.73;;
18711;SDS011;9485;49.386;8.674;2023-05-10T22:34:50;1.00;;;1.00;;
18711;SDS011;9485;49.386;8.674;2023-05-10T22:40:11;0.80;;;0.73;;
18711;SDS011;9485;49.386;8.674;2023-05-10T22:45:31;0.70;;;0.70;;
18711;SDS011;9485;49.386;8.674;2023-05-10T22:50:53;1.67;;;0.90;;
18711;SDS011;9485;49.386;8.674;2023-05-10T22:56:14;1.00;;;0.83;;
18711;SDS011;9485;49.386;8.674;2023-05-10T23:01:35;0.87;;;0.80;;
18711;SDS011;9485;49.386;8.674;2023-05-10T23:06:57;2.97;;;1.10;;
18711;SDS011;9485;49.386;8.674;2023-05-10T23:12:18;0.73;;;0.70;;
18711;SDS011;9485;49.386;8.674;2023-05-10T23:17:39;1.10;;;1.00;;
18711;SDS011;9485;49.386;8.674;2023-05-10T23:23:00;0.80;;;0.80;;
18711;SDS011;9485;49.386;8.674;2023-05-10T23:28:21;1.00;;;1.00;;
18711;SDS011;9485;49.386;8.674;2023-05-10T23:33:42;0.87;;;0.83;;
18711;SDS011;9485;49.386;8.674;2023-05-10T23:39:04;1.00;;;0.90;;
18711;SDS011;9485;49.386;8.674;2023-05-10T23:44:25;1.63;;;1.10;;
18711;SDS011;9485;49.386;8.674;2023-05-10T23:49:46;1.17;;;1.03;;
18711;SDS011;9485;49.386;8.674;2023-05-10T23:55:10;0.87;;;0.87;;
